VLG49UC EGLL-LECO
Flight info
| Callsign | VLG49UC |
|---|---|
| Flight time | N/A |
| Altitude | 37000 |
| Route | GASGU DCT SAM M195 LORKU DCT BETUV DCT SOVIM DCT COQUE DCT KOLEK DCT KORUL |
| Aircraft | A320/M-SDE3FGHIRWY/LB1 |
Departure
| Time | N/A |
|---|---|
| Airport | London Heathrow Airport (EGLL) |
Arrival
| Time | 2026-04-26 11:59 |
|---|---|
| Airport | A Coruña Airport (LECO) |
| Time | Latitude | Longitude | Altitude | Speed | Heading |
|---|---|---|---|---|---|
| 2026-04-26 11:07 | 47.73734 | -4.25048 | 37265 ft | 420 kts | 219° |
| 2026-04-26 11:07 | 47.71416 | -4.27694 | 37252 ft | 420 kts | 219° |
| 2026-04-26 11:07 | 47.66778 | -4.32984 | 37253 ft | 421 kts | 219° |
| 2026-04-26 11:08 | 47.62136 | -4.38271 | 37252 ft | 421 kts | 219° |
| 2026-04-26 11:08 | 47.57482 | -4.43543 | 37255 ft | 421 kts | 219° |
| 2026-04-26 11:09 | 47.52858 | -4.48781 | 37256 ft | 421 kts | 219° |
| 2026-04-26 11:09 | 47.48198 | -4.54044 | 37253 ft | 421 kts | 219° |
| 2026-04-26 11:10 | 47.43545 | -4.59297 | 37257 ft | 421 kts | 219° |
| 2026-04-26 11:10 | 47.38880 | -4.64542 | 37261 ft | 421 kts | 219° |
| 2026-04-26 11:11 | 47.34215 | -4.69779 | 37262 ft | 421 kts | 219° |
| 2026-04-26 11:11 | 47.29546 | -4.75002 | 37263 ft | 421 kts | 219° |
| 2026-04-26 11:12 | 47.24877 | -4.80221 | 37256 ft | 421 kts | 219° |
| 2026-04-26 11:12 | 47.20210 | -4.85425 | 37259 ft | 421 kts | 219° |
| 2026-04-26 11:13 | 47.15533 | -4.90621 | 37263 ft | 421 kts | 219° |
| 2026-04-26 11:13 | 47.10853 | -4.95807 | 37270 ft | 421 kts | 219° |
| 2026-04-26 11:14 | 47.06054 | -5.00747 | 37257 ft | 422 kts | 213° |
| 2026-04-26 11:14 | 47.01052 | -5.05260 | 37259 ft | 422 kts | 213° |
| 2026-04-26 11:15 | 46.96049 | -5.09764 | 37259 ft | 422 kts | 213° |
| 2026-04-26 11:15 | 46.91046 | -5.14262 | 37262 ft | 422 kts | 213° |
| 2026-04-26 11:16 | 46.86078 | -5.18727 | 37258 ft | 422 kts | 213° |
| 2026-04-26 11:16 | 46.81073 | -5.23202 | 37263 ft | 422 kts | 213° |
| 2026-04-26 11:17 | 46.76037 | -5.27680 | 37269 ft | 421 kts | 213° |
| 2026-04-26 11:17 | 46.71034 | -5.32130 | 37277 ft | 421 kts | 213° |
| 2026-04-26 11:18 | 46.66047 | -5.36570 | 37281 ft | 420 kts | 213° |
| 2026-04-26 11:18 | 46.61069 | -5.40997 | 37274 ft | 419 kts | 213° |
| 2026-04-26 11:19 | 46.56084 | -5.45392 | 37268 ft | 419 kts | 213° |
| 2026-04-26 11:19 | 46.51104 | -5.49779 | 37269 ft | 418 kts | 213° |
| 2026-04-26 11:20 | 46.46968 | -5.53411 | 37277 ft | 418 kts | 213° |
| 2026-04-26 11:20 | 46.41144 | -5.58506 | 37262 ft | 418 kts | 213° |
| 2026-04-26 11:21 | 46.36158 | -5.62866 | 37267 ft | 419 kts | 213° |
| 2026-04-26 11:21 | 46.31204 | -5.67183 | 37275 ft | 418 kts | 213° |
| 2026-04-26 11:22 | 46.26230 | -5.71518 | 37278 ft | 417 kts | 213° |
| 2026-04-26 11:22 | 46.21261 | -5.75838 | 37265 ft | 417 kts | 213° |
| 2026-04-26 11:23 | 46.16294 | -5.80147 | 37266 ft | 416 kts | 213° |
| 2026-04-26 11:23 | 46.11330 | -5.84441 | 37277 ft | 416 kts | 213° |
| 2026-04-26 11:24 | 46.06354 | -5.88746 | 37272 ft | 416 kts | 213° |
| 2026-04-26 11:24 | 46.01383 | -5.93025 | 37255 ft | 416 kts | 213° |
| 2026-04-26 11:25 | 45.96408 | -5.97289 | 37275 ft | 416 kts | 213° |
| 2026-04-26 11:25 | 45.91442 | -6.01557 | 37275 ft | 416 kts | 213° |
| 2026-04-26 11:26 | 45.86479 | -6.05804 | 37276 ft | 415 kts | 212° |
| 2026-04-26 11:26 | 45.81523 | -6.10035 | 37278 ft | 415 kts | 212° |
| 2026-04-26 11:27 | 45.76561 | -6.14261 | 37257 ft | 415 kts | 212° |
| 2026-04-26 11:27 | 45.71595 | -6.18493 | 37265 ft | 416 kts | 212° |
| 2026-04-26 11:28 | 45.66627 | -6.22721 | 37268 ft | 416 kts | 212° |
| 2026-04-26 11:28 | 45.61642 | -6.26948 | 37276 ft | 416 kts | 212° |
| 2026-04-26 11:29 | 45.56668 | -6.31142 | 37271 ft | 415 kts | 212° |
| 2026-04-26 11:29 | 45.51691 | -6.35325 | 37272 ft | 415 kts | 212° |
| 2026-04-26 11:30 | 45.47558 | -6.38806 | 37272 ft | 415 kts | 212° |
| 2026-04-26 11:30 | 45.41780 | -6.43661 | 37268 ft | 415 kts | 212° |
| 2026-04-26 11:31 | 45.36814 | -6.47829 | 37258 ft | 415 kts | 212° |
| 2026-04-26 11:31 | 45.31835 | -6.51996 | 37258 ft | 415 kts | 212° |
| 2026-04-26 11:32 | 45.26849 | -6.56160 | 37258 ft | 416 kts | 212° |
| 2026-04-26 11:32 | 45.21865 | -6.60307 | 37275 ft | 415 kts | 212° |
| 2026-04-26 11:33 | 45.16882 | -6.64449 | 37262 ft | 414 kts | 212° |
| 2026-04-26 11:33 | 45.11913 | -6.68574 | 37261 ft | 414 kts | 212° |
| 2026-04-26 11:34 | 45.07773 | -6.71998 | 37261 ft | 414 kts | 212° |
| 2026-04-26 11:34 | 45.02793 | -6.76115 | 37261 ft | 415 kts | 212° |
| 2026-04-26 11:35 | 44.97811 | -6.80228 | 37246 ft | 415 kts | 212° |
| 2026-04-26 11:35 | 44.92829 | -6.84349 | 37244 ft | 415 kts | 212° |
| 2026-04-26 11:36 | 44.87836 | -6.88449 | 37259 ft | 416 kts | 212° |
| 2026-04-26 11:36 | 44.82874 | -6.92623 | 37265 ft | 413 kts | 217° |
| 2026-04-26 11:37 | 44.78193 | -6.97309 | 37257 ft | 412 kts | 217° |
| 2026-04-26 11:37 | 44.73507 | -7.01971 | 36708 ft | 416 kts | 217° |
| 2026-04-26 11:38 | 44.71123 | -7.04338 | 35379 ft | 423 kts | 216° |
| 2026-04-26 11:38 | 44.68697 | -7.06744 | 33878 ft | 431 kts | 216° |
| 2026-04-26 11:38 | 44.66245 | -7.09168 | 32589 ft | 430 kts | 216° |
| 2026-04-26 11:38 | 44.63804 | -7.11577 | 31412 ft | 427 kts | 216° |
| 2026-04-26 11:39 | 44.61396 | -7.13954 | 30377 ft | 421 kts | 216° |
| 2026-04-26 11:39 | 44.59020 | -7.16303 | 29224 ft | 414 kts | 216° |
| 2026-04-26 11:39 | 44.56694 | -7.18601 | 28471 ft | 400 kts | 216° |
| 2026-04-26 11:39 | 44.54474 | -7.20788 | 28049 ft | 381 kts | 216° |
| 2026-04-26 11:40 | 44.52353 | -7.22877 | 27603 ft | 365 kts | 216° |
| 2026-04-26 11:40 | 44.50318 | -7.24880 | 27177 ft | 350 kts | 216° |
| 2026-04-26 11:40 | 44.48360 | -7.26806 | 26776 ft | 340 kts | 216° |
| 2026-04-26 11:40 | 44.46417 | -7.28719 | 26383 ft | 342 kts | 216° |
| 2026-04-26 11:41 | 44.44471 | -7.30636 | 25996 ft | 342 kts | 216° |
| 2026-04-26 11:42 | 44.31042 | -7.43771 | 23301 ft | 331 kts | 216° |
| 2026-04-26 11:43 | 44.29160 | -7.45603 | 22908 ft | 329 kts | 216° |
| 2026-04-26 11:43 | 44.27312 | -7.47402 | 22534 ft | 327 kts | 216° |
| 2026-04-26 11:43 | 44.25449 | -7.49219 | 22130 ft | 326 kts | 216° |
| 2026-04-26 11:43 | 44.23595 | -7.51025 | 21731 ft | 324 kts | 216° |
| 2026-04-26 11:44 | 44.21723 | -7.52844 | 21319 ft | 323 kts | 216° |
| 2026-04-26 11:44 | 44.19910 | -7.54600 | 20912 ft | 322 kts | 216° |
| 2026-04-26 11:44 | 44.18053 | -7.56403 | 20494 ft | 320 kts | 216° |
| 2026-04-26 11:44 | 44.16251 | -7.58151 | 20061 ft | 319 kts | 216° |
| 2026-04-26 11:45 | 44.14430 | -7.59917 | 19666 ft | 319 kts | 216° |
| 2026-04-26 11:45 | 44.12611 | -7.61679 | 19248 ft | 318 kts | 216° |
| 2026-04-26 11:45 | 44.10792 | -7.63436 | 18825 ft | 318 kts | 216° |
| 2026-04-26 11:45 | 44.08974 | -7.65193 | 18393 ft | 318 kts | 216° |
| 2026-04-26 11:46 | 44.07158 | -7.66951 | 17943 ft | 317 kts | 216° |
| 2026-04-26 11:46 | 44.05351 | -7.68697 | 17520 ft | 315 kts | 216° |
| 2026-04-26 11:46 | 44.03553 | -7.70433 | 17094 ft | 314 kts | 216° |
| 2026-04-26 11:46 | 44.01764 | -7.72160 | 16692 ft | 312 kts | 216° |
| 2026-04-26 11:47 | 43.99985 | -7.73876 | 16265 ft | 312 kts | 216° |
| 2026-04-26 11:47 | 43.98202 | -7.75594 | 15841 ft | 311 kts | 216° |
| 2026-04-26 11:47 | 43.96427 | -7.77300 | 15430 ft | 310 kts | 216° |
| 2026-04-26 11:47 | 43.94659 | -7.78997 | 15008 ft | 309 kts | 216° |
| 2026-04-26 11:48 | 43.92890 | -7.80698 | 14597 ft | 309 kts | 216° |
| 2026-04-26 11:48 | 43.91122 | -7.82396 | 14183 ft | 309 kts | 216° |
| 2026-04-26 11:48 | 43.89356 | -7.84094 | 13732 ft | 309 kts | 216° |
| 2026-04-26 11:48 | 43.87594 | -7.85787 | 13314 ft | 307 kts | 216° |
| 2026-04-26 11:49 | 43.85840 | -7.87466 | 12895 ft | 306 kts | 215° |
| 2026-04-26 11:49 | 43.84093 | -7.89136 | 12483 ft | 304 kts | 215° |
| 2026-04-26 11:49 | 43.82354 | -7.90796 | 12075 ft | 303 kts | 215° |
| 2026-04-26 11:49 | 43.80623 | -7.92446 | 11659 ft | 302 kts | 215° |
| 2026-04-26 11:50 | 43.78899 | -7.94090 | 11259 ft | 300 kts | 214° |
| 2026-04-26 11:50 | 43.77182 | -7.95728 | 10860 ft | 299 kts | 214° |
| 2026-04-26 11:50 | 43.75471 | -7.97360 | 10471 ft | 298 kts | 214° |
| 2026-04-26 11:50 | 43.73801 | -7.98956 | 10277 ft | 284 kts | 214° |
| 2026-04-26 11:51 | 43.72210 | -8.00477 | 10035 ft | 274 kts | 214° |
| 2026-04-26 11:51 | 43.70626 | -8.01988 | 9879 ft | 278 kts | 213° |
| 2026-04-26 11:51 | 43.69023 | -8.03509 | 9504 ft | 279 kts | 213° |
| 2026-04-26 11:51 | 43.67418 | -8.05029 | 9089 ft | 280 kts | 213° |
| 2026-04-26 11:52 | 43.65830 | -8.06537 | 8823 ft | 275 kts | 214° |
| 2026-04-26 11:52 | 43.64252 | -8.08038 | 8396 ft | 274 kts | 214° |
| 2026-04-26 11:52 | 43.62678 | -8.09530 | 7690 ft | 275 kts | 214° |
| 2026-04-26 11:52 | 43.61107 | -8.11017 | 7117 ft | 271 kts | 214° |
| 2026-04-26 11:53 | 43.59581 | -8.12459 | 6567 ft | 268 kts | 214° |
| 2026-04-26 11:53 | 43.58060 | -8.13897 | 6064 ft | 262 kts | 214° |
| 2026-04-26 11:53 | 43.56570 | -8.15305 | 5823 ft | 258 kts | 214° |
| 2026-04-26 11:54 | 43.53650 | -8.18063 | 5310 ft | 252 kts | 214° |
| 2026-04-26 11:54 | 43.52223 | -8.19410 | 5037 ft | 245 kts | 214° |
| 2026-04-26 11:54 | 43.50841 | -8.20715 | 4770 ft | 238 kts | 213° |
| 2026-04-26 11:54 | 43.49458 | -8.21913 | 4476 ft | 232 kts | 210° |
| 2026-04-26 11:55 | 43.48073 | -8.23018 | 4178 ft | 229 kts | 210° |
| 2026-04-26 11:55 | 43.46724 | -8.24118 | 3876 ft | 222 kts | 210° |
| 2026-04-26 11:55 | 43.45427 | -8.25189 | 3591 ft | 214 kts | 210° |
| 2026-04-26 11:55 | 43.44160 | -8.26235 | 3319 ft | 210 kts | 210° |
| 2026-04-26 11:56 | 43.42940 | -8.27242 | 3046 ft | 199 kts | 210° |
| 2026-04-26 11:56 | 43.41773 | -8.28205 | 2788 ft | 193 kts | 210° |
| 2026-04-26 11:56 | 43.40625 | -8.29151 | 2530 ft | 192 kts | 210° |
| 2026-04-26 11:56 | 43.39484 | -8.30092 | 2281 ft | 191 kts | 210° |
| 2026-04-26 11:57 | 43.38340 | -8.31033 | 2022 ft | 191 kts | 211° |
| 2026-04-26 11:57 | 43.37232 | -8.31946 | 1791 ft | 180 kts | 211° |
| 2026-04-26 11:57 | 43.36218 | -8.32781 | 1564 ft | 159 kts | 211° |
| 2026-04-26 11:57 | 43.35302 | -8.33534 | 1345 ft | 149 kts | 211° |
| 2026-04-26 11:58 | 43.34419 | -8.34260 | 1135 ft | 146 kts | 213° |
| 2026-04-26 11:58 | 43.33543 | -8.34975 | 948 ft | 144 kts | 212° |
| 2026-04-26 11:58 | 43.32678 | -8.35688 | 777 ft | 146 kts | 212° |
| 2026-04-26 11:58 | 43.31809 | -8.36401 | 535 ft | 146 kts | 213° |
| 2026-04-26 11:59 | 43.30939 | -8.37121 | 413 ft | 145 kts | 212° |
| 2026-04-26 11:59 | 43.30091 | -8.37813 | 345 ft | 130 kts | 211° |
| 2026-04-26 11:59 | 43.29510 | -8.38287 | 339 ft | 67 kts | 212° |
| 2026-04-26 11:59 | 43.29252 | -8.38496 | 337 ft | 23 kts | 207° |
| 2026-04-26 12:00 | 43.29187 | -8.38588 | 336 ft | 14 kts | 317° |
| 2026-04-26 12:00 | 43.29261 | -8.38519 | 339 ft | 15 kts | 57° |
| 2026-04-26 12:00 | 43.29350 | -8.38419 | 338 ft | 19 kts | 30° |
| 2026-04-26 12:00 | 43.29473 | -8.38319 | 337 ft | 22 kts | 31° |
| 2026-04-26 12:01 | 43.29611 | -8.38206 | 336 ft | 24 kts | 30° |
| 2026-04-26 12:01 | 43.29761 | -8.38085 | 340 ft | 26 kts | 31° |
| 2026-04-26 12:01 | 43.29919 | -8.37955 | 347 ft | 21 kts | 31° |
| 2026-04-26 12:01 | 43.29952 | -8.37996 | 345 ft | 9 kts | 282° |
| 2026-04-26 12:02 | 43.30004 | -8.38073 | 340 ft | 14 kts | 345° |
| 2026-04-26 12:02 | 43.30069 | -8.38072 | 341 ft | 14 kts | 11° |
| 2026-04-26 12:02 | 43.30177 | -8.37994 | 338 ft | 11 kts | 31° |
| 2026-04-26 12:02 | 43.30227 | -8.37965 | 337 ft | 5 kts | 339° |
| 2026-04-26 12:03 | 43.30236 | -8.37984 | 338 ft | 4 kts | 304° |
| 2026-04-26 12:03 | 43.30249 | -8.38014 | 341 ft | 1 kts | 302° |